sensor_id;sensor_type;location;lat;lon;timestamp;P1;durP1;ratioP1;P2;durP2;ratioP2
62844;SDS011;48929;47.910;20.390;2023-05-14T00:02:25;8.05;;;4.82;;
62844;SDS011;48929;47.910;20.390;2023-05-14T00:04:54;6.75;;;4.82;;
62844;SDS011;48929;47.910;20.390;2023-05-14T00:07:24;7.47;;;5.00;;
62844;SDS011;48929;47.910;20.390;2023-05-14T00:12:46;7.70;;;4.63;;
62844;SDS011;48929;47.910;20.390;2023-05-14T00:15:15;5.75;;;4.50;;
62844;SDS011;48929;47.910;20.390;2023-05-14T00:17:45;7.28;;;4.80;;
62844;SDS011;48929;47.910;20.390;2023-05-14T00:20:13;6.85;;;4.90;;
62844;SDS011;48929;47.910;20.390;2023-05-14T00:22:42;6.10;;;4.80;;
62844;SDS011;48929;47.910;20.390;2023-05-14T00:25:11;7.85;;;4.88;;
62844;SDS011;48929;47.910;20.390;2023-05-14T00:27:39;7.03;;;4.85;;
62844;SDS011;48929;47.910;20.390;2023-05-14T00:30:10;7.13;;;4.80;;
62844;SDS011;48929;47.910;20.390;2023-05-14T00:32:39;6.53;;;4.80;;
62844;SDS011;48929;47.910;20.390;2023-05-14T00:35:08;7.15;;;4.93;;
62844;SDS011;48929;47.910;20.390;2023-05-14T00:37:37;6.13;;;4.80;;
62844;SDS011;48929;47.910;20.390;2023-05-14T00:40:06;6.75;;;4.93;;
62844;SDS011;48929;47.910;20.390;2023-05-14T00:42:38;8.80;;;4.90;;
62844;SDS011;48929;47.910;20.390;2023-05-14T00:45:10;6.93;;;5.13;;
62844;SDS011;48929;47.910;20.390;2023-05-14T00:47:39;6.38;;;4.85;;
62844;SDS011;48929;47.910;20.390;2023-05-14T00:50:09;7.03;;;4.80;;
62844;SDS011;48929;47.910;20.390;2023-05-14T00:52:40;6.82;;;5.10;;
62844;SDS011;48929;47.910;20.390;2023-05-14T00:55:10;7.22;;;4.75;;
62844;SDS011;48929;47.910;20.390;2023-05-14T00:57:43;6.65;;;4.90;;
62844;SDS011;48929;47.910;20.390;2023-05-14T01:00:15;7.35;;;5.03;;
62844;SDS011;48929;47.910;20.390;2023-05-14T01:02:44;7.20;;;5.22;;
62844;SDS011;48929;47.910;20.390;2023-05-14T01:05:13;7.10;;;5.25;;
62844;SDS011;48929;47.910;20.390;2023-05-14T01:07:45;8.07;;;5.18;;
62844;SDS011;48929;47.910;20.390;2023-05-14T01:10:24;6.43;;;4.55;;
62844;SDS011;48929;47.910;20.390;2023-05-14T01:12:59;7.35;;;4.80;;
62844;SDS011;48929;47.910;20.390;2023-05-14T01:15:35;7.40;;;5.03;;
62844;SDS011;48929;47.910;20.390;2023-05-14T01:18:07;6.55;;;5.10;;
62844;SDS011;48929;47.910;20.390;2023-05-14T01:20:38;6.20;;;4.57;;
62844;SDS011;48929;47.910;20.390;2023-05-14T01:23:08;7.45;;;5.03;;
62844;SDS011;48929;47.910;20.390;2023-05-14T01:25:37;7.75;;;5.30;;
62844;SDS011;48929;47.910;20.390;2023-05-14T01:28:08;7.03;;;5.28;;
62844;SDS011;48929;47.910;20.390;2023-05-14T01:30:46;7.43;;;5.53;;
62844;SDS011;48929;47.910;20.390;2023-05-14T01:33:21;6.60;;;5.18;;
62844;SDS011;48929;47.910;20.390;2023-05-14T01:35:53;7.50;;;4.97;;
62844;SDS011;48929;47.910;20.390;2023-05-14T01:38:26;6.53;;;4.90;;
62844;SDS011;48929;47.910;20.390;2023-05-14T01:40:56;6.93;;;5.10;;
62844;SDS011;48929;47.910;20.390;2023-05-14T01:43:26;6.78;;;5.25;;
62844;SDS011;48929;47.910;20.390;2023-05-14T01:45:55;8.55;;;5.30;;
62844;SDS011;48929;47.910;20.390;2023-05-14T01:48:24;7.95;;;5.13;;
62844;SDS011;48929;47.910;20.390;2023-05-14T01:50:55;8.20;;;5.15;;
62844;SDS011;48929;47.910;20.390;2023-05-14T01:53:26;8.20;;;5.60;;
62844;SDS011;48929;47.910;20.390;2023-05-14T01:55:56;6.75;;;4.95;;
62844;SDS011;48929;47.910;20.390;2023-05-14T01:58:25;7.50;;;5.40;;
62844;SDS011;48929;47.910;20.390;2023-05-14T02:00:54;8.70;;;5.40;;
62844;SDS011;48929;47.910;20.390;2023-05-14T02:03:22;7.63;;;5.60;;
62844;SDS011;48929;47.910;20.390;2023-05-14T02:05:51;8.02;;;5.65;;
62844;SDS011;48929;47.910;20.390;2023-05-14T02:08:20;7.63;;;5.60;;
62844;SDS011;48929;47.910;20.390;2023-05-14T02:10:51;6.75;;;5.10;;
62844;SDS011;48929;47.910;20.390;2023-05-14T02:13:23;7.70;;;5.50;;
62844;SDS011;48929;47.910;20.390;2023-05-14T02:15:52;8.98;;;5.63;;
62844;SDS011;48929;47.910;20.390;2023-05-14T02:18:21;8.65;;;6.05;;
62844;SDS011;48929;47.910;20.390;2023-05-14T02:20:50;8.30;;;6.32;;
62844;SDS011;48929;47.910;20.390;2023-05-14T02:23:19;9.32;;;6.20;;
62844;SDS011;48929;47.910;20.390;2023-05-14T02:26:05;8.30;;;5.97;;
62844;SDS011;48929;47.910;20.390;2023-05-14T02:28:35;9.48;;;6.28;;
62844;SDS011;48929;47.910;20.390;2023-05-14T02:31:04;7.78;;;5.78;;
62844;SDS011;48929;47.910;20.390;2023-05-14T02:33:33;8.30;;;6.25;;
62844;SDS011;48929;47.910;20.390;2023-05-14T02:36:02;7.82;;;5.75;;
62844;SDS011;48929;47.910;20.390;2023-05-14T02:38:31;8.98;;;5.78;;
62844;SDS011;48929;47.910;20.390;2023-05-14T02:41:00;9.38;;;6.38;;
62844;SDS011;48929;47.910;20.390;2023-05-14T02:43:31;8.23;;;6.03;;
62844;SDS011;48929;47.910;20.390;2023-05-14T02:46:00;8.88;;;6.28;;
62844;SDS011;48929;47.910;20.390;2023-05-14T02:48:29;9.57;;;6.43;;
62844;SDS011;48929;47.910;20.390;2023-05-14T02:50:58;8.50;;;6.50;;
62844;SDS011;48929;47.910;20.390;2023-05-14T02:53:27;9.50;;;6.75;;
62844;SDS011;48929;47.910;20.390;2023-05-14T02:55:56;9.93;;;6.43;;
62844;SDS011;48929;47.910;20.390;2023-05-14T02:58:24;11.10;;;6.82;;
62844;SDS011;48929;47.910;20.390;2023-05-14T03:00:55;8.40;;;5.88;;
62844;SDS011;48929;47.910;20.390;2023-05-14T03:03:24;9.55;;;6.65;;
62844;SDS011;48929;47.910;20.390;2023-05-14T03:05:54;8.93;;;6.00;;
62844;SDS011;48929;47.910;20.390;2023-05-14T03:08:25;9.40;;;6.22;;
62844;SDS011;48929;47.910;20.390;2023-05-14T03:10:57;8.77;;;5.75;;
62844;SDS011;48929;47.910;20.390;2023-05-14T03:13:26;8.75;;;6.53;;
62844;SDS011;48929;47.910;20.390;2023-05-14T03:15:57;8.82;;;5.93;;
62844;SDS011;48929;47.910;20.390;2023-05-14T03:18:26;7.93;;;5.68;;
62844;SDS011;48929;47.910;20.390;2023-05-14T03:20:56;8.05;;;5.45;;
62844;SDS011;48929;47.910;20.390;2023-05-14T03:23:25;8.30;;;5.60;;
62844;SDS011;48929;47.910;20.390;2023-05-14T03:25:54;7.18;;;5.30;;
62844;SDS011;48929;47.910;20.390;2023-05-14T03:28:22;6.28;;;5.10;;
62844;SDS011;48929;47.910;20.390;2023-05-14T03:30:54;9.52;;;5.60;;
62844;SDS011;48929;47.910;20.390;2023-05-14T03:33:24;8.95;;;5.35;;
62844;SDS011;48929;47.910;20.390;2023-05-14T03:35:53;8.55;;;5.57;;
62844;SDS011;48929;47.910;20.390;2023-05-14T03:38:22;7.13;;;5.40;;
62844;SDS011;48929;47.910;20.390;2023-05-14T03:40:51;6.72;;;4.93;;
62844;SDS011;48929;47.910;20.390;2023-05-14T03:43:19;6.97;;;5.47;;
62844;SDS011;48929;47.910;20.390;2023-05-14T03:45:48;8.70;;;5.32;;
62844;SDS011;48929;47.910;20.390;2023-05-14T03:48:18;7.57;;;5.50;;
62844;SDS011;48929;47.910;20.390;2023-05-14T03:50:49;6.57;;;5.30;;
62844;SDS011;48929;47.910;20.390;2023-05-14T03:53:22;6.85;;;5.22;;
62844;SDS011;48929;47.910;20.390;2023-05-14T03:55:51;7.65;;;5.18;;
62844;SDS011;48929;47.910;20.390;2023-05-14T03:58:20;7.38;;;4.97;;
62844;SDS011;48929;47.910;20.390;2023-05-14T04:01:07;7.07;;;5.00;;
62844;SDS011;48929;47.910;20.390;2023-05-14T04:03:48;8.25;;;4.88;;
62844;SDS011;48929;47.910;20.390;2023-05-14T04:06:19;9.02;;;4.85;;
62844;SDS011;48929;47.910;20.390;2023-05-14T04:08:47;7.20;;;4.38;;
62844;SDS011;48929;47.910;20.390;2023-05-14T04:11:15;5.20;;;4.25;;
62844;SDS011;48929;47.910;20.390;2023-05-14T04:13:46;6.63;;;4.00;;
62844;SDS011;48929;47.910;20.390;2023-05-14T04:16:15;5.80;;;4.28;;
62844;SDS011;48929;47.910;20.390;2023-05-14T04:18:44;7.60;;;4.38;;
62844;SDS011;48929;47.910;20.390;2023-05-14T04:21:34;5.80;;;4.03;;
62844;SDS011;48929;47.910;20.390;2023-05-14T04:24:03;7.38;;;4.32;;
62844;SDS011;48929;47.910;20.390;2023-05-14T04:26:35;5.63;;;3.97;;
62844;SDS011;48929;47.910;20.390;2023-05-14T04:29:04;7.15;;;4.00;;
62844;SDS011;48929;47.910;20.390;2023-05-14T04:31:32;6.93;;;4.45;;
62844;SDS011;48929;47.910;20.390;2023-05-14T04:34:04;5.60;;;4.05;;
62844;SDS011;48929;47.910;20.390;2023-05-14T04:36:41;4.90;;;3.80;;
62844;SDS011;48929;47.910;20.390;2023-05-14T04:39:22;7.82;;;4.00;;
62844;SDS011;48929;47.910;20.390;2023-05-14T04:41:54;5.72;;;4.07;;
62844;SDS011;48929;47.910;20.390;2023-05-14T04:44:23;5.50;;;4.03;;
62844;SDS011;48929;47.910;20.390;2023-05-14T04:46:52;5.63;;;4.15;;
62844;SDS011;48929;47.910;20.390;2023-05-14T04:49:24;5.65;;;4.10;;
62844;SDS011;48929;47.910;20.390;2023-05-14T04:51:55;4.90;;;3.83;;
62844;SDS011;48929;47.910;20.390;2023-05-14T04:54:24;5.47;;;4.13;;
62844;SDS011;48929;47.910;20.390;2023-05-14T04:56:54;6.05;;;4.22;;
62844;SDS011;48929;47.910;20.390;2023-05-14T04:59:34;5.03;;;3.97;;
62844;SDS011;48929;47.910;20.390;2023-05-14T05:02:12;5.43;;;4.00;;
62844;SDS011;48929;47.910;20.390;2023-05-14T05:04:51;5.88;;;4.45;;
62844;SDS011;48929;47.910;20.390;2023-05-14T05:07:21;5.57;;;4.03;;
62844;SDS011;48929;47.910;20.390;2023-05-14T05:09:50;5.95;;;4.50;;
62844;SDS011;48929;47.910;20.390;2023-05-14T05:12:20;6.30;;;4.10;;
62844;SDS011;48929;47.910;20.390;2023-05-14T05:14:49;5.75;;;4.10;;
62844;SDS011;48929;47.910;20.390;2023-05-14T05:17:19;7.18;;;4.50;;
62844;SDS011;48929;47.910;20.390;2023-05-14T05:19:49;8.27;;;4.45;;
62844;SDS011;48929;47.910;20.390;2023-05-14T05:22:28;6.68;;;4.07;;
62844;SDS011;48929;47.910;20.390;2023-05-14T05:24:59;5.47;;;4.13;;
62844;SDS011;48929;47.910;20.390;2023-05-14T05:27:33;6.00;;;4.13;;
62844;SDS011;48929;47.910;20.390;2023-05-14T05:30:21;6.53;;;4.40;;
62844;SDS011;48929;47.910;20.390;2023-05-14T05:33:06;5.80;;;4.22;;
62844;SDS011;48929;47.910;20.390;2023-05-14T05:35:54;7.35;;;4.38;;
62844;SDS011;48929;47.910;20.390;2023-05-14T05:38:38;6.88;;;4.47;;
62844;SDS011;48929;47.910;20.390;2023-05-14T05:41:07;5.72;;;3.92;;
62844;SDS011;48929;47.910;20.390;2023-05-14T05:43:38;6.78;;;3.92;;
62844;SDS011;48929;47.910;20.390;2023-05-14T05:46:15;6.35;;;4.20;;
62844;SDS011;48929;47.910;20.390;2023-05-14T05:48:57;5.93;;;4.15;;
62844;SDS011;48929;47.910;20.390;2023-05-14T05:51:38;7.00;;;4.00;;
62844;SDS011;48929;47.910;20.390;2023-05-14T05:54:08;7.18;;;4.30;;
62844;SDS011;48929;47.910;20.390;2023-05-14T05:56:41;5.38;;;4.10;;
62844;SDS011;48929;47.910;20.390;2023-05-14T05:59:14;6.82;;;3.30;;
62844;SDS011;48929;47.910;20.390;2023-05-14T06:01:47;7.57;;;4.18;;
62844;SDS011;48929;47.910;20.390;2023-05-14T06:04:26;5.22;;;4.15;;
62844;SDS011;48929;47.910;20.390;2023-05-14T06:09:48;6.32;;;4.88;;
62844;SDS011;48929;47.910;20.390;2023-05-14T06:12:24;6.00;;;4.20;;
62844;SDS011;48929;47.910;20.390;2023-05-14T06:14:59;6.82;;;4.65;;
62844;SDS011;48929;47.910;20.390;2023-05-14T06:17:35;5.75;;;4.10;;
62844;SDS011;48929;47.910;20.390;2023-05-14T06:20:08;7.00;;;4.60;;
62844;SDS011;48929;47.910;20.390;2023-05-14T06:22:49;7.60;;;4.30;;
62844;SDS011;48929;47.910;20.390;2023-05-14T06:25:32;7.22;;;4.57;;
62844;SDS011;48929;47.910;20.390;2023-05-14T06:28:07;6.18;;;4.15;;
62844;SDS011;48929;47.910;20.390;2023-05-14T06:31:12;8.43;;;4.70;;
62844;SDS011;48929;47.910;20.390;2023-05-14T06:34:02;6.22;;;4.03;;
62844;SDS011;48929;47.910;20.390;2023-05-14T06:36:56;6.20;;;4.45;;
62844;SDS011;48929;47.910;20.390;2023-05-14T06:45:41;6.57;;;4.40;;
62844;SDS011;48929;47.910;20.390;2023-05-14T06:48:31;6.97;;;4.43;;
62844;SDS011;48929;47.910;20.390;2023-05-14T06:51:05;7.65;;;4.32;;
62844;SDS011;48929;47.910;20.390;2023-05-14T06:53:42;6.70;;;4.80;;
62844;SDS011;48929;47.910;20.390;2023-05-14T06:56:16;6.25;;;4.70;;
62844;SDS011;48929;47.910;20.390;2023-05-14T07:02:21;5.40;;;4.32;;
62844;SDS011;48929;47.910;20.390;2023-05-14T07:08:40;8.40;;;4.27;;
62844;SDS011;48929;47.910;20.390;2023-05-14T07:11:30;6.78;;;4.50;;
62844;SDS011;48929;47.910;20.390;2023-05-14T07:14:31;8.05;;;4.82;;
62844;SDS011;48929;47.910;20.390;2023-05-14T07:20:32;5.43;;;4.20;;
62844;SDS011;48929;47.910;20.390;2023-05-14T07:23:14;7.35;;;4.50;;
62844;SDS011;48929;47.910;20.390;2023-05-14T07:26:22;6.93;;;4.80;;
62844;SDS011;48929;47.910;20.390;2023-05-14T07:29:02;5.68;;;4.30;;
62844;SDS011;48929;47.910;20.390;2023-05-14T07:35:34;10.13;;;4.55;;
62844;SDS011;48929;47.910;20.390;2023-05-14T07:38:17;6.82;;;4.45;;
62844;SDS011;48929;47.910;20.390;2023-05-14T07:41:02;6.93;;;4.50;;
62844;SDS011;48929;47.910;20.390;2023-05-14T07:43:54;6.00;;;4.05;;
62844;SDS011;48929;47.910;20.390;2023-05-14T07:46:35;7.78;;;4.53;;
62844;SDS011;48929;47.910;20.390;2023-05-14T07:49:09;6.13;;;4.13;;
62844;SDS011;48929;47.910;20.390;2023-05-14T07:51:45;6.15;;;4.30;;
62844;SDS011;48929;47.910;20.390;2023-05-14T07:54:49;6.93;;;4.07;;
62844;SDS011;48929;47.910;20.390;2023-05-14T07:57:50;6.72;;;4.10;;
62844;SDS011;48929;47.910;20.390;2023-05-14T08:02:00;5.30;;;4.00;;
62844;SDS011;48929;47.910;20.390;2023-05-14T08:04:55;6.55;;;3.75;;
62844;SDS011;48929;47.910;20.390;2023-05-14T08:07:35;6.32;;;4.03;;
62844;SDS011;48929;47.910;20.390;2023-05-14T08:10:26;5.38;;;4.10;;
62844;SDS011;48929;47.910;20.390;2023-05-14T08:13:05;5.45;;;3.38;;
62844;SDS011;48929;47.910;20.390;2023-05-14T08:15:57;7.45;;;4.00;;
62844;SDS011;48929;47.910;20.390;2023-05-14T08:18:33;5.38;;;3.95;;
62844;SDS011;48929;47.910;20.390;2023-05-14T08:21:10;6.20;;;3.58;;
62844;SDS011;48929;47.910;20.390;2023-05-14T08:23:46;5.35;;;3.53;;
62844;SDS011;48929;47.910;20.390;2023-05-14T08:26:28;6.65;;;3.90;;
62844;SDS011;48929;47.910;20.390;2023-05-14T08:28:59;4.40;;;3.55;;
62844;SDS011;48929;47.910;20.390;2023-05-14T08:31:37;5.53;;;3.83;;
62844;SDS011;48929;47.910;20.390;2023-05-14T08:34:27;4.85;;;3.22;;
62844;SDS011;48929;47.910;20.390;2023-05-14T08:36:58;4.95;;;3.50;;
62844;SDS011;48929;47.910;20.390;2023-05-14T08:39:29;4.75;;;3.22;;
62844;SDS011;48929;47.910;20.390;2023-05-14T08:42:08;7.40;;;3.50;;
62844;SDS011;48929;47.910;20.390;2023-05-14T08:44:44;5.30;;;3.70;;
62844;SDS011;48929;47.910;20.390;2023-05-14T08:47:21;6.15;;;3.85;;
62844;SDS011;48929;47.910;20.390;2023-05-14T08:50:06;4.20;;;3.30;;
62844;SDS011;48929;47.910;20.390;2023-05-14T08:52:58;5.03;;;3.60;;
62844;SDS011;48929;47.910;20.390;2023-05-14T08:55:59;6.95;;;3.65;;
62844;SDS011;48929;47.910;20.390;2023-05-14T08:58:36;5.40;;;3.50;;
62844;SDS011;48929;47.910;20.390;2023-05-14T09:02:27;5.88;;;3.47;;
62844;SDS011;48929;47.910;20.390;2023-05-14T09:05:00;5.10;;;3.60;;
62844;SDS011;48929;47.910;20.390;2023-05-14T09:07:38;5.15;;;3.58;;
62844;SDS011;48929;47.910;20.390;2023-05-14T09:10:08;5.65;;;3.55;;
62844;SDS011;48929;47.910;20.390;2023-05-14T09:12:50;4.63;;;3.42;;
62844;SDS011;48929;47.910;20.390;2023-05-14T09:15:31;5.22;;;3.60;;
62844;SDS011;48929;47.910;20.390;2023-05-14T09:18:07;5.20;;;3.30;;
62844;SDS011;48929;47.910;20.390;2023-05-14T09:20:46;4.32;;;3.50;;
62844;SDS011;48929;47.910;20.390;2023-05-14T09:23:21;6.50;;;4.20;;
62844;SDS011;48929;47.910;20.390;2023-05-14T09:25:54;5.97;;;3.88;;
62844;SDS011;48929;47.910;20.390;2023-05-14T09:28:33;5.90;;;4.22;;
62844;SDS011;48929;47.910;20.390;2023-05-14T09:31:01;5.93;;;4.05;;
62844;SDS011;48929;47.910;20.390;2023-05-14T09:33:32;6.45;;;3.63;;
62844;SDS011;48929;47.910;20.390;2023-05-14T09:36:02;6.38;;;3.70;;
62844;SDS011;48929;47.910;20.390;2023-05-14T09:38:32;4.72;;;3.38;;
62844;SDS011;48929;47.910;20.390;2023-05-14T09:41:04;5.60;;;3.60;;
62844;SDS011;48929;47.910;20.390;2023-05-14T09:43:37;8.20;;;3.80;;
62844;SDS011;48929;47.910;20.390;2023-05-14T09:48:57;4.78;;;3.40;;
62844;SDS011;48929;47.910;20.390;2023-05-14T09:51:32;3.90;;;3.00;;
62844;SDS011;48929;47.910;20.390;2023-05-14T09:54:13;4.20;;;3.13;;
62844;SDS011;48929;47.910;20.390;2023-05-14T09:56:59;5.43;;;3.72;;
62844;SDS011;48929;47.910;20.390;2023-05-14T09:59:37;7.80;;;3.42;;
62844;SDS011;48929;47.910;20.390;2023-05-14T10:02:29;6.18;;;3.50;;
62844;SDS011;48929;47.910;20.390;2023-05-14T10:05:20;5.32;;;3.45;;
62844;SDS011;48929;47.910;20.390;2023-05-14T10:08:04;4.95;;;3.10;;
62844;SDS011;48929;47.910;20.390;2023-05-14T10:10:40;4.65;;;3.40;;
62844;SDS011;48929;47.910;20.390;2023-05-14T10:13:14;6.03;;;3.60;;
62844;SDS011;48929;47.910;20.390;2023-05-14T10:15:54;4.90;;;3.75;;
62844;SDS011;48929;47.910;20.390;2023-05-14T10:18:46;7.07;;;3.78;;
62844;SDS011;48929;47.910;20.390;2023-05-14T10:21:28;6.70;;;3.95;;
62844;SDS011;48929;47.910;20.390;2023-05-14T10:24:25;5.20;;;3.85;;
62844;SDS011;48929;47.910;20.390;2023-05-14T10:27:12;8.70;;;3.97;;
62844;SDS011;48929;47.910;20.390;2023-05-14T10:29:50;6.10;;;3.97;;
62844;SDS011;48929;47.910;20.390;2023-05-14T10:33:07;5.93;;;3.90;;
62844;SDS011;48929;47.910;20.390;2023-05-14T10:38:58;6.68;;;4.80;;
62844;SDS011;48929;47.910;20.390;2023-05-14T10:41:30;6.45;;;4.20;;
62844;SDS011;48929;47.910;20.390;2023-05-14T10:44:05;6.80;;;4.18;;
62844;SDS011;48929;47.910;20.390;2023-05-14T10:46:36;5.63;;;4.28;;
62844;SDS011;48929;47.910;20.390;2023-05-14T10:52:09;8.82;;;4.50;;
62844;SDS011;48929;47.910;20.390;2023-05-14T10:54:40;8.10;;;4.50;;
62844;SDS011;48929;47.910;20.390;2023-05-14T10:57:16;5.75;;;4.10;;
62844;SDS011;48929;47.910;20.390;2023-05-14T10:59:53;4.88;;;3.60;;
62844;SDS011;48929;47.910;20.390;2023-05-14T11:02:33;7.13;;;4.18;;
62844;SDS011;48929;47.910;20.390;2023-05-14T11:05:05;6.60;;;4.10;;
62844;SDS011;48929;47.910;20.390;2023-05-14T11:07:39;6.40;;;3.90;;
62844;SDS011;48929;47.910;20.390;2023-05-14T11:10:17;6.32;;;4.38;;
62844;SDS011;48929;47.910;20.390;2023-05-14T11:12:52;7.05;;;4.43;;
62844;SDS011;48929;47.910;20.390;2023-05-14T11:15:31;6.10;;;4.03;;
62844;SDS011;48929;47.910;20.390;2023-05-14T11:18:24;5.28;;;3.78;;
62844;SDS011;48929;47.910;20.390;2023-05-14T11:21:00;5.65;;;4.15;;
62844;SDS011;48929;47.910;20.390;2023-05-14T11:23:31;6.45;;;4.20;;
62844;SDS011;48929;47.910;20.390;2023-05-14T11:26:00;5.18;;;3.92;;
62844;SDS011;48929;47.910;20.390;2023-05-14T11:28:29;7.13;;;4.07;;
62844;SDS011;48929;47.910;20.390;2023-05-14T11:30:58;5.13;;;4.13;;
62844;SDS011;48929;47.910;20.390;2023-05-14T11:33:27;5.63;;;4.28;;
62844;SDS011;48929;47.910;20.390;2023-05-14T11:36:01;5.93;;;4.13;;
62844;SDS011;48929;47.910;20.390;2023-05-14T11:38:31;5.72;;;4.03;;
62844;SDS011;48929;47.910;20.390;2023-05-14T11:41:02;6.47;;;4.70;;
62844;SDS011;48929;47.910;20.390;2023-05-14T11:43:34;6.20;;;4.20;;
62844;SDS011;48929;47.910;20.390;2023-05-14T11:46:04;7.40;;;4.88;;
62844;SDS011;48929;47.910;20.390;2023-05-14T11:48:38;7.30;;;4.63;;
62844;SDS011;48929;47.910;20.390;2023-05-14T11:51:11;6.43;;;4.65;;
62844;SDS011;48929;47.910;20.390;2023-05-14T11:53:40;7.45;;;4.78;;
62844;SDS011;48929;47.910;20.390;2023-05-14T11:56:24;7.30;;;5.00;;
62844;SDS011;48929;47.910;20.390;2023-05-14T11:58:59;6.93;;;5.15;;
62844;SDS011;48929;47.910;20.390;2023-05-14T12:01:36;6.80;;;4.80;;
62844;SDS011;48929;47.910;20.390;2023-05-14T12:04:24;6.72;;;4.78;;
62844;SDS011;48929;47.910;20.390;2023-05-14T12:07:10;6.43;;;4.88;;
62844;SDS011;48929;47.910;20.390;2023-05-14T12:09:52;7.68;;;5.50;;
62844;SDS011;48929;47.910;20.390;2023-05-14T12:12:43;6.80;;;5.15;;
62844;SDS011;48929;47.910;20.390;2023-05-14T12:15:20;6.93;;;4.65;;
62844;SDS011;48929;47.910;20.390;2023-05-14T12:18:07;6.93;;;4.93;;
62844;SDS011;48929;47.910;20.390;2023-05-14T12:21:11;6.10;;;4.72;;
62844;SDS011;48929;47.910;20.390;2023-05-14T12:24:07;5.50;;;4.63;;
62844;SDS011;48929;47.910;20.390;2023-05-14T12:27:00;6.03;;;5.10;;
62844;SDS011;48929;47.910;20.390;2023-05-14T12:29:45;7.78;;;5.18;;
62844;SDS011;48929;47.910;20.390;2023-05-14T12:32:14;8.50;;;5.10;;
62844;SDS011;48929;47.910;20.390;2023-05-14T12:34:46;8.25;;;5.18;;
62844;SDS011;48929;47.910;20.390;2023-05-14T12:37:24;7.63;;;4.90;;
62844;SDS011;48929;47.910;20.390;2023-05-14T12:40:00;8.73;;;4.93;;
62844;SDS011;48929;47.910;20.390;2023-05-14T12:42:45;9.43;;;5.32;;
62844;SDS011;48929;47.910;20.390;2023-05-14T12:45:39;6.70;;;5.22;;
62844;SDS011;48929;47.910;20.390;2023-05-14T12:51:43;10.70;;;5.15;;
62844;SDS011;48929;47.910;20.390;2023-05-14T12:54:59;9.65;;;5.13;;
62844;SDS011;48929;47.910;20.390;2023-05-14T13:01:49;9.48;;;4.88;;
62844;SDS011;48929;47.910;20.390;2023-05-14T13:04:23;7.93;;;4.68;;
62844;SDS011;48929;47.910;20.390;2023-05-14T13:06:53;5.50;;;4.40;;
62844;SDS011;48929;47.910;20.390;2023-05-14T13:09:31;5.90;;;4.10;;
62844;SDS011;48929;47.910;20.390;2023-05-14T13:12:11;8.10;;;5.07;;
62844;SDS011;48929;47.910;20.390;2023-05-14T13:15:00;6.80;;;4.75;;
62844;SDS011;48929;47.910;20.390;2023-05-14T13:17:32;6.28;;;5.25;;
62844;SDS011;48929;47.910;20.390;2023-05-14T13:20:06;8.15;;;4.97;;
62844;SDS011;48929;47.910;20.390;2023-05-14T13:22:36;9.05;;;5.05;;
62844;SDS011;48929;47.910;20.390;2023-05-14T13:25:05;6.57;;;5.00;;
62844;SDS011;48929;47.910;20.390;2023-05-14T13:27:36;6.35;;;5.20;;
62844;SDS011;48929;47.910;20.390;2023-05-14T13:30:06;7.32;;;5.18;;
62844;SDS011;48929;47.910;20.390;2023-05-14T13:32:36;6.78;;;5.07;;
62844;SDS011;48929;47.910;20.390;2023-05-14T13:35:10;7.38;;;5.30;;
62844;SDS011;48929;47.910;20.390;2023-05-14T13:37:41;7.03;;;5.07;;
62844;SDS011;48929;47.910;20.390;2023-05-14T13:40:14;6.70;;;4.97;;
62844;SDS011;48929;47.910;20.390;2023-05-14T13:42:46;6.70;;;5.28;;
62844;SDS011;48929;47.910;20.390;2023-05-14T13:45:15;8.13;;;5.30;;
62844;SDS011;48929;47.910;20.390;2023-05-14T13:47:44;8.05;;;5.30;;
62844;SDS011;48929;47.910;20.390;2023-05-14T13:50:15;7.80;;;5.00;;
62844;SDS011;48929;47.910;20.390;2023-05-14T13:52:44;7.57;;;5.40;;
62844;SDS011;48929;47.910;20.390;2023-05-14T13:55:15;7.20;;;5.05;;
62844;SDS011;48929;47.910;20.390;2023-05-14T13:57:48;7.80;;;5.18;;
62844;SDS011;48929;47.910;20.390;2023-05-14T14:00:17;6.70;;;5.22;;
62844;SDS011;48929;47.910;20.390;2023-05-14T14:02:50;6.28;;;5.03;;
62844;SDS011;48929;47.910;20.390;2023-05-14T14:05:23;6.57;;;5.22;;
62844;SDS011;48929;47.910;20.390;2023-05-14T14:07:57;9.55;;;5.40;;
62844;SDS011;48929;47.910;20.390;2023-05-14T14:10:52;7.78;;;5.20;;
62844;SDS011;48929;47.910;20.390;2023-05-14T14:13:25;7.35;;;5.35;;
62844;SDS011;48929;47.910;20.390;2023-05-14T14:15:55;8.15;;;5.13;;
62844;SDS011;48929;47.910;20.390;2023-05-14T14:18:24;7.93;;;5.05;;
62844;SDS011;48929;47.910;20.390;2023-05-14T14:20:55;7.75;;;5.38;;
62844;SDS011;48929;47.910;20.390;2023-05-14T14:23:24;8.85;;;5.70;;
62844;SDS011;48929;47.910;20.390;2023-05-14T14:25:56;8.30;;;6.07;;
62844;SDS011;48929;47.910;20.390;2023-05-14T14:28:29;9.05;;;6.15;;
62844;SDS011;48929;47.910;20.390;2023-05-14T14:31:03;8.00;;;5.50;;
62844;SDS011;48929;47.910;20.390;2023-05-14T14:33:32;7.00;;;6.22;;
62844;SDS011;48929;47.910;20.390;2023-05-14T14:36:01;7.75;;;5.80;;
62844;SDS011;48929;47.910;20.390;2023-05-14T14:38:32;9.43;;;6.28;;
62844;SDS011;48929;47.910;20.390;2023-05-14T14:41:55;9.17;;;6.70;;
62844;SDS011;48929;47.910;20.390;2023-05-14T14:44:35;10.05;;;6.38;;
62844;SDS011;48929;47.910;20.390;2023-05-14T14:49:39;9.02;;;6.47;;
62844;SDS011;48929;47.910;20.390;2023-05-14T14:52:15;10.70;;;6.88;;
62844;SDS011;48929;47.910;20.390;2023-05-14T14:55:01;8.95;;;7.30;;
62844;SDS011;48929;47.910;20.390;2023-05-14T14:57:32;10.70;;;6.60;;
62844;SDS011;48929;47.910;20.390;2023-05-14T15:00:10;9.80;;;7.45;;
62844;SDS011;48929;47.910;20.390;2023-05-14T15:02:48;8.75;;;6.60;;
62844;SDS011;48929;47.910;20.390;2023-05-14T15:05:21;10.68;;;6.95;;
62844;SDS011;48929;47.910;20.390;2023-05-14T15:07:59;11.45;;;7.25;;
62844;SDS011;48929;47.910;20.390;2023-05-14T15:10:33;14.32;;;7.70;;
62844;SDS011;48929;47.910;20.390;2023-05-14T15:13:23;10.88;;;7.85;;
62844;SDS011;48929;47.910;20.390;2023-05-14T15:16:04;10.40;;;7.78;;
62844;SDS011;48929;47.910;20.390;2023-05-14T15:19:11;10.13;;;7.28;;
62844;SDS011;48929;47.910;20.390;2023-05-14T15:21:55;13.18;;;7.15;;
62844;SDS011;48929;47.910;20.390;2023-05-14T15:24:53;9.18;;;7.03;;
62844;SDS011;48929;47.910;20.390;2023-05-14T15:27:43;10.00;;;7.07;;
62844;SDS011;48929;47.910;20.390;2023-05-14T15:30:20;11.48;;;7.57;;
62844;SDS011;48929;47.910;20.390;2023-05-14T15:39:22;9.27;;;6.30;;
62844;SDS011;48929;47.910;20.390;2023-05-14T15:42:08;10.00;;;7.20;;
62844;SDS011;48929;47.910;20.390;2023-05-14T15:44:41;11.05;;;6.97;;
62844;SDS011;48929;47.910;20.390;2023-05-14T15:47:23;14.95;;;7.13;;
62844;SDS011;48929;47.910;20.390;2023-05-14T15:50:41;7.63;;;5.15;;
62844;SDS011;48929;47.910;20.390;2023-05-14T15:56:19;9.45;;;5.43;;
62844;SDS011;48929;47.910;20.390;2023-05-14T15:59:24;8.18;;;4.90;;
62844;SDS011;48929;47.910;20.390;2023-05-14T16:01:58;8.93;;;5.40;;
62844;SDS011;48929;47.910;20.390;2023-05-14T16:04:43;7.57;;;5.13;;
62844;SDS011;48929;47.910;20.390;2023-05-14T16:07:50;7.43;;;5.13;;
62844;SDS011;48929;47.910;20.390;2023-05-14T16:18:54;8.25;;;4.50;;
62844;SDS011;48929;47.910;20.390;2023-05-14T16:22:26;6.38;;;5.15;;
62844;SDS011;48929;47.910;20.390;2023-05-14T16:25:49;12.15;;;5.00;;
62844;SDS011;48929;47.910;20.390;2023-05-14T16:36:48;6.82;;;4.97;;
62844;SDS011;48929;47.910;20.390;2023-05-14T16:43:14;7.82;;;5.65;;
62844;SDS011;48929;47.910;20.390;2023-05-14T16:46:43;7.88;;;4.90;;
62844;SDS011;48929;47.910;20.390;2023-05-14T16:49:58;6.35;;;5.05;;